Fort Dodge Regional Airport
KFOD : now visible

Airfield :











YOU CAN JOIN US ON...

 
LOGIN :

Register | Disclaimer

   EN    FR    IT 

 









Legend :    VFR   Marginal VFR   IFR   Intensive IFR   Very Intensive IFR
Visi :
Ceiling :
>= 8 km
>= 3000ft
5 to 8 km
1000 to 3000 ft
1500m to 5 km
500 to 1000 ft
800 to 1500m
200 to 500 ft
< 800m
< 200 ft
Symbols :   Thunderstorms  Fog  Heavy snow  Heavy precipitations  Wind > 20 kt






- Airport Elevation : 1156 ft
- IATA code : FOD


KFOD - Fort Dodge Regional

CURRENT METAR :
  • 192056Z AUTO 12007KT 10SM OVC017 02/M02 A3021 RMK AO2 SLP269 60000 T00171017 56019 FZRANO

EXPIRED METARs :
  • 191956Z AUTO 11007KT 10SM OVC015 02/M02 A3023 RMK AO2 RAE05 SLP278 P0000 T00171022 FZRANO
  • 191909Z AUTO 15008KT 10SM OVC015 02/M02 A3023 RMK AO2 RAE05 P0000 FZRANO
  • 191856Z AUTO 15007KT 10SM -RA OVC013 02/M02 A3024 RMK AO2 SLP279 P0000 T00171017 FZRANO

TAF KFOD
Valid from the 19 at 18:00 until the 20 at 18:00 UTC


191743Z 1918/2018 13007KT P6SM -SN BKN025
TEMPO 1918/1920 3SM -SN BR BKN011
FM192000 12005KT P6SM OVC030
FM192200 11004KT P6SM BKN045
FM201700 13011G19KT P6SM OVC020
KZMP FIR / North America



MET'MAP, your aeronautical weather chart ! - Copyright ORBIFLY December 2007 - Disclaimer

ORBIFLY MET'MAP TEAM :

Programming & Development : Alexandra Zaïnal
Concept & original design : Baudouin d'Aumeries
Assistance for programming : Marc-Olivier Méhu
Technical & hardware support : Manuel Goepfert

Contact : metmap@orbifly.com




SOURCES & CREDITS :

   NOAA       Earth
Advisory